Terminal Aerodrome Forecast
Issued by NWS

Home | Current Version | Previous Version | Text Only | Print | Product List | Glossary On
Versions: 1 2 3 4 5 6 7 8 9 10 11 12 13 14 15 16 17 18 19
000
FTUS44 KCRP 181413 AAA
TAFALI
TAF AMD
KALI 181413Z 1814/1912 18007KT P6SM OVC010
      TEMPO 1814/1816 OVC005
     FM181600 21007KT P6SM SCT015
     FM182100 36013KT P6SM SCT050
     FM190000 36017G25KT P6SM SKC
     FM190900 01011KT P6SM SKC=

USA.gov is the U.S. government's official web portal to all federal, state and local government web resources and services.